Time;durP1;ratioP1;P1;durP2;ratioP2;P2;SDS_P1;SDS_P2;PMS_P1;PMS_P2;Temp;Humidity;BMP_temperature;BMP_pressure;BME280_temperature;BME280_humidity;BME280_pressure;Samples;Min_cycle;Max_cycle;Signal;HPM_P1;HPM_P2
2022/09/03 00:02:59;;;;;;;7.05;2.67;;;;;;;;;;6177837;23;20168;-89
2022/09/03 00:06:11;;;;;;;8.75;2.65;;;;;;;;;;6195440;23;20219;-87
2022/09/03 00:09:20;;;;;;;8.52;3.65;;;;;;;;;;6178653;23;20164;-87
2022/09/03 00:12:28;;;;;;;8.32;3.50;;;;;;;;;;6178077;23;20227;-88
2022/09/03 00:15:34;;;;;;;12.45;3.40;;;;;;;;;;6175877;23;20502;-87
2022/09/03 00:18:44;;;;;;;11.20;3.75;;;;;;;;;;6194858;23;20156;-87
2022/09/03 00:21:53;;;;;;;11.43;3.90;;;;;;;;;;6195185;23;20168;-87
2022/09/03 00:24:59;;;;;;;19.33;6.40;;;;;;;;;;6195146;23;20175;-88
2022/09/03 00:28:07;;;;;;;14.27;5.22;;;;;;;;;;6194765;23;20180;-87
2022/09/03 00:31:17;;;;;;;8.98;3.20;;;;;;;;;;6192882;23;20191;-88
2022/09/03 00:34:25;;;;;;;5.38;2.42;;;;;;;;;;6194664;23;20152;-88
2022/09/03 00:37:32;;;;;;;5.07;2.63;;;;;;;;;;6195048;23;20667;-88
2022/09/03 00:40:45;;;;;;;9.95;3.70;;;;;;;;;;6195618;23;20175;-87
2022/09/03 00:43:58;;;;;;;6.10;2.75;;;;;;;;;;6193948;23;20292;-87
2022/09/03 00:47:30;;;;;;;8.00;3.00;;;;;;;;;;6193330;23;20671;-86
2022/09/03 00:50:42;;;;;;;8.63;3.85;;;;;;;;;;6194187;23;20214;-88
2022/09/03 00:53:53;;;;;;;15.52;4.15;;;;;;;;;;6193702;23;20168;-90
2022/09/03 00:57:04;;;;;;;8.88;3.58;;;;;;;;;;6193277;23;20175;-87
2022/09/03 01:00:11;;;;;;;6.68;3.15;;;;;;;;;;6193271;23;20199;-87
2022/09/03 01:03:22;;;;;;;7.05;3.30;;;;;;;;;;6192242;23;20167;-89
2022/09/03 01:06:31;;;;;;;7.05;3.40;;;;;;;;;;6193375;23;20180;-87
2022/09/03 01:09:47;;;;;;;5.70;3.03;;;;;;;;;;6192303;23;20176;-88
2022/09/03 01:12:57;;;;;;;7.65;3.78;;;;;;;;;;6190098;23;20164;-85
2022/09/03 01:16:10;;;;;;;7.22;3.45;;;;;;;;;;6192257;23;20172;-88
2022/09/03 01:19:27;;;;;;;7.28;3.28;;;;;;;;;;6193245;23;20171;-89
2022/09/03 01:22:44;;;;;;;5.95;2.97;;;;;;;;;;6191768;23;20172;-87
2022/09/03 01:25:53;;;;;;;4.32;2.42;;;;;;;;;;6190476;23;20171;-87
2022/09/03 01:29:04;;;;;;;6.53;2.45;;;;;;;;;;6192839;23;20160;-88
2022/09/03 01:32:14;;;;;;;7.95;2.92;;;;;;;;;;6192179;23;20254;-90
2022/09/03 01:35:24;;;;;;;8.07;3.10;;;;;;;;;;6192606;23;20295;-88
2022/09/03 01:38:34;;;;;;;5.90;2.75;;;;;;;;;;6191288;23;20172;-87
2022/09/03 01:45:21;;;;;;;5.30;2.38;;;;;;;;;;6193151;23;20179;-88
2022/09/03 01:48:38;;;;;;;5.72;2.58;;;;;;;;;;6193198;23;20184;-88
2022/09/03 01:51:44;;;;;;;6.22;2.50;;;;;;;;;;6191098;23;20210;-87
2022/09/03 01:54:54;;;;;;;7.65;2.25;;;;;;;;;;6190730;23;20171;-87
2022/09/03 01:58:02;;;;;;;5.78;2.20;;;;;;;;;;6192139;23;20179;-88
2022/09/03 02:01:13;;;;;;;2.88;2.05;;;;;;;;;;6192139;23;20164;-89
2022/09/03 02:04:22;;;;;;;9.02;2.50;;;;;;;;;;6192678;23;20191;-87
2022/09/03 02:07:32;;;;;;;5.88;2.60;;;;;;;;;;6190633;23;20172;-87
2022/09/03 02:10:41;;;;;;;6.72;2.50;;;;;;;;;;6192091;23;20176;-90
2022/09/03 02:13:48;;;;;;;4.13;2.30;;;;;;;;;;6192259;23;20675;-89
2022/09/03 02:16:56;;;;;;;4.97;2.70;;;;;;;;;;6193200;23;20222;-87
2022/09/03 02:20:03;;;;;;;4.70;2.58;;;;;;;;;;6192610;23;20207;-87
2022/09/03 02:23:08;;;;;;;7.45;2.78;;;;;;;;;;6189949;23;20288;-86
2022/09/03 02:26:16;;;;;;;5.80;2.60;;;;;;;;;;6191040;23;20179;-89
2022/09/03 02:29:22;;;;;;;5.63;2.50;;;;;;;;;;6191390;23;20171;-88
2022/09/03 02:32:28;;;;;;;3.53;2.30;;;;;;;;;;6190655;23;20199;-88
2022/09/03 02:35:33;;;;;;;3.47;2.50;;;;;;;;;;6190998;23;20700;-88
2022/09/03 02:38:39;;;;;;;6.10;2.70;;;;;;;;;;6190313;23;20168;-89
2022/09/03 02:41:44;;;;;;;6.80;2.80;;;;;;;;;;6190191;23;20491;-87
2022/09/03 02:44:51;;;;;;;3.85;2.60;;;;;;;;;;6191015;23;20191;-87
2022/09/03 02:47:59;;;;;;;7.63;2.78;;;;;;;;;;6191375;23;20247;-89
2022/09/03 02:51:04;;;;;;;4.28;2.67;;;;;;;;;;6191473;23;20624;-87
2022/09/03 02:54:09;;;;;;;3.75;2.42;;;;;;;;;;6173500;23;20164;-86
2022/09/03 02:57:15;;;;;;;5.32;2.50;;;;;;;;;;6189681;23;20171;-86
2022/09/03 03:00:19;;;;;;;5.93;2.53;;;;;;;;;;6190369;23;20168;-87
2022/09/03 03:03:27;;;;;;;5.18;2.80;;;;;;;;;;6191720;23;20480;-88
2022/09/03 03:06:32;;;;;;;5.57;2.58;;;;;;;;;;6191716;23;20489;-86
2022/09/03 03:09:37;;;;;;;4.97;2.88;;;;;;;;;;6191369;23;20272;-87
2022/09/03 03:12:41;;;;;;;5.13;2.53;;;;;;;;;;6188205;23;20239;-87
2022/09/03 03:15:47;;;;;;;5.57;2.67;;;;;;;;;;6189654;23;20199;-88
2022/09/03 03:18:54;;;;;;;5.97;2.70;;;;;;;;;;6190838;23;20623;-88
2022/09/03 03:21:59;;;;;;;4.35;2.58;;;;;;;;;;6190207;23;20275;-89
2022/09/03 03:25:04;;;;;;;6.13;3.00;;;;;;;;;;6190845;23;20172;-90
2022/09/03 03:28:09;;;;;;;5.15;2.78;;;;;;;;;;6190688;23;20171;-87
2022/09/03 03:31:15;;;;;;;3.95;2.47;;;;;;;;;;6190157;23;20216;-88
2022/09/03 03:34:22;;;;;;;4.07;2.63;;;;;;;;;;6190644;23;20208;-88
2022/09/03 03:37:27;;;;;;;4.40;2.53;;;;;;;;;;6191518;23;20172;-87
2022/09/03 03:40:32;;;;;;;9.40;2.95;;;;;;;;;;6191324;23;20180;-88
2022/09/03 03:43:37;;;;;;;5.93;2.60;;;;;;;;;;6191882;23;20505;-88
2022/09/03 03:46:43;;;;;;;5.28;3.00;;;;;;;;;;6190486;23;20635;-87
2022/09/03 03:49:49;;;;;;;7.82;2.80;;;;;;;;;;6192069;23;20191;-90
2022/09/03 03:52:55;;;;;;;5.93;2.90;;;;;;;;;;6190963;23;20212;-87
2022/09/03 03:56:00;;;;;;;4.30;2.70;;;;;;;;;;6191405;23;20857;-87
2022/09/03 03:59:05;;;;;;;7.78;3.00;;;;;;;;;;6190531;23;20172;-89
2022/09/03 04:02:11;;;;;;;7.35;2.80;;;;;;;;;;6190560;23;20223;-86
2022/09/03 04:05:17;;;;;;;5.63;2.45;;;;;;;;;;6190595;23;20148;-87
2022/09/03 04:08:23;;;;;;;5.63;2.60;;;;;;;;;;6192889;23;20207;-87
2022/09/03 04:11:28;;;;;;;4.50;2.60;;;;;;;;;;6192699;23;20195;-86
2022/09/03 04:14:33;;;;;;;4.82;2.90;;;;;;;;;;6193503;23;20168;-87
2022/09/03 04:17:38;;;;;;;4.15;2.50;;;;;;;;;;6175492;23;20218;-87
2022/09/03 04:20:44;;;;;;;4.28;2.40;;;;;;;;;;6175809;23;20167;-87
2022/09/03 04:23:50;;;;;;;5.93;2.50;;;;;;;;;;6175338;23;20168;-87
2022/09/03 04:27:00;;;;;;;4.85;2.35;;;;;;;;;;6176387;23;20168;-89
2022/09/03 04:30:05;;;;;;;4.57;2.05;;;;;;;;;;6195618;23;20276;-88
2022/09/03 04:33:10;;;;;;;8.80;2.85;;;;;;;;;;6177240;23;20172;-88
2022/09/03 04:36:17;;;;;;;3.90;2.45;;;;;;;;;;6177705;23;20168;-88
2022/09/03 04:39:22;;;;;;;3.60;2.63;;;;;;;;;;6177877;23;20179;-89
2022/09/03 04:42:28;;;;;;;6.80;2.63;;;;;;;;;;6196443;23;20266;-86
2022/09/03 04:45:33;;;;;;;9.77;3.03;;;;;;;;;;6178963;23;20220;-88
2022/09/03 04:48:40;;;;;;;4.90;3.00;;;;;;;;;;6180172;23;20247;-88
2022/09/03 04:51:48;;;;;;;9.38;3.10;;;;;;;;;;6177783;23;20235;-85
2022/09/03 04:54:54;;;;;;;7.50;2.92;;;;;;;;;;6177218;23;20232;-88
2022/09/03 04:57:59;;;;;;;7.80;2.97;;;;;;;;;;6176818;23;20241;-87
2022/09/03 05:01:08;;;;;;;4.43;2.80;;;;;;;;;;6180787;23;20219;-86
2022/09/03 05:04:13;;;;;;;4.05;2.58;;;;;;;;;;6178124;23;20509;-90
2022/09/03 05:07:20;;;;;;;4.60;2.67;;;;;;;;;;6177290;23;20172;-88
2022/09/03 05:10:26;;;;;;;9.60;2.72;;;;;;;;;;6178101;23;20156;-86
2022/09/03 05:13:32;;;;;;;3.90;2.40;;;;;;;;;;6179312;23;20172;-86
2022/09/03 05:16:37;;;;;;;6.55;2.70;;;;;;;;;;6191000;23;20188;-87
2022/09/03 05:19:42;;;;;;;5.22;2.38;;;;;;;;;;6197619;23;20160;-88
2022/09/03 05:22:49;;;;;;;4.72;2.33;;;;;;;;;;6196886;23;20196;-87
2022/09/03 05:25:58;;;;;;;6.55;2.55;;;;;;;;;;6194994;23;20229;-88
2022/09/03 05:29:06;;;;;;;4.95;2.28;;;;;;;;;;6196152;23;20192;-88
2022/09/03 05:32:11;;;;;;;3.95;2.10;;;;;;;;;;6194860;23;20176;-85
2022/09/03 05:35:16;;;;;;;5.63;2.22;;;;;;;;;;6196827;23;20192;-85
2022/09/03 05:38:22;;;;;;;4.43;2.03;;;;;;;;;;6198610;23;20171;-85
2022/09/03 05:41:28;;;;;;;8.43;2.22;;;;;;;;;;6196811;23;20740;-87
2022/09/03 05:44:35;;;;;;;6.15;1.88;;;;;;;;;;6194250;23;20172;-89
2022/09/03 05:48:01;;;;;;;3.30;1.80;;;;;;;;;;6193689;23;20175;-87
2022/09/03 05:51:07;;;;;;;4.00;1.60;;;;;;;;;;6194981;23;20183;-86
2022/09/03 05:54:14;;;;;;;3.47;2.00;;;;;;;;;;6194430;23;20219;-87
2022/09/03 05:57:19;;;;;;;4.47;1.80;;;;;;;;;;6193787;23;20556;-87
2022/09/03 06:00:24;;;;;;;4.25;1.80;;;;;;;;;;6193941;23;20171;-88
2022/09/03 06:03:30;;;;;;;4.78;2.10;;;;;;;;;;6195838;23;20176;-87
2022/09/03 06:06:36;;;;;;;5.60;2.10;;;;;;;;;;6193991;23;20598;-88
2022/09/03 06:09:42;;;;;;;3.65;1.80;;;;;;;;;;6192673;23;20612;-88
2022/09/03 06:12:51;;;;;;;5.05;2.03;;;;;;;;;;6193184;23;20176;-89
2022/09/03 06:15:57;;;;;;;4.38;1.90;;;;;;;;;;6194134;23;20198;-87
2022/09/03 06:19:02;;;;;;;4.07;1.90;;;;;;;;;;6194287;23;20265;-87
2022/09/03 06:22:07;;;;;;;3.10;1.80;;;;;;;;;;6195136;23;20195;-89
2022/09/03 06:25:18;;;;;;;8.20;1.90;;;;;;;;;;6200045;23;20167;-87
2022/09/03 06:28:23;;;;;;;3.63;2.17;;;;;;;;;;6195274;23;20195;-89
2022/09/03 06:31:28;;;;;;;8.32;1.80;;;;;;;;;;6194784;23;20172;-89
2022/09/03 06:34:34;;;;;;;5.15;2.05;;;;;;;;;;6197616;23;20179;-87
2022/09/03 06:37:43;;;;;;;6.25;2.08;;;;;;;;;;6198959;23;20176;-87
2022/09/03 06:40:53;;;;;;;3.40;1.63;;;;;;;;;;6197557;23;20176;-89
2022/09/03 06:44:01;;;;;;;5.45;2.47;;;;;;;;;;6195671;23;20188;-88
2022/09/03 06:47:34;;;;;;;5.80;2.15;;;;;;;;;;6192758;23;20191;-89
2022/09/03 06:50:39;;;;;;;2.28;1.50;;;;;;;;;;6195257;23;20220;-89
2022/09/03 06:53:47;;;;;;;2.65;1.77;;;;;;;;;;6193920;23;20199;-89
2022/09/03 06:56:57;;;;;;;10.15;1.77;;;;;;;;;;6194649;23;20168;-88
2022/09/03 07:00:03;;;;;;;5.72;1.73;;;;;;;;;;6193657;23;20163;-87
2022/09/03 07:03:08;;;;;;;6.50;2.80;;;;;;;;;;6194310;23;20195;-89
2022/09/03 07:06:14;;;;;;;6.47;1.80;;;;;;;;;;6195648;23;20229;-87
2022/09/03 07:09:19;;;;;;;3.10;1.75;;;;;;;;;;6194866;23;20251;-88
2022/09/03 07:12:28;;;;;;;3.70;1.70;;;;;;;;;;6192541;23;20232;-89
2022/09/03 07:15:33;;;;;;;5.03;1.70;;;;;;;;;;6195126;23;20639;-89
2022/09/03 07:18:38;;;;;;;4.55;1.63;;;;;;;;;;6197750;23;20242;-88
2022/09/03 07:21:44;;;;;;;5.55;1.60;;;;;;;;;;6195178;23;20207;-88
2022/09/03 07:24:51;;;;;;;4.00;1.83;;;;;;;;;;6196345;23;20671;-87
2022/09/03 07:27:58;;;;;;;8.48;2.08;;;;;;;;;;6197492;23;20171;-87
2022/09/03 07:31:05;;;;;;;5.95;2.03;;;;;;;;;;6194404;23;20204;-88
2022/09/03 07:34:15;;;;;;;4.20;2.20;;;;;;;;;;6191975;23;20171;-85
2022/09/03 07:37:20;;;;;;;5.45;2.55;;;;;;;;;;6194187;23;20499;-86
2022/09/03 07:40:26;;;;;;;4.43;1.65;;;;;;;;;;6198862;23;20611;-88
2022/09/03 07:43:34;;;;;;;5.65;1.50;;;;;;;;;;6194019;23;20195;-88
2022/09/03 07:46:40;;;;;;;3.45;1.60;;;;;;;;;;6194717;23;20160;-89
2022/09/03 07:49:45;;;;;;;2.40;1.60;;;;;;;;;;6192998;23;20219;-86
2022/09/03 07:52:51;;;;;;;4.95;1.92;;;;;;;;;;6195125;23;20156;-87
2022/09/03 07:56:01;;;;;;;3.88;1.90;;;;;;;;;;6193048;23;20167;-90
2022/09/03 07:59:08;;;;;;;6.22;1.63;;;;;;;;;;6197074;23;20175;-89
2022/09/03 08:02:13;;;;;;;5.43;1.60;;;;;;;;;;6194816;23;20159;-89
2022/09/03 08:05:20;;;;;;;2.88;1.50;;;;;;;;;;6192011;23;20179;-90
2022/09/03 08:08:25;;;;;;;3.65;1.30;;;;;;;;;;6194768;23;20176;-90
2022/09/03 08:11:31;;;;;;;4.07;1.60;;;;;;;;;;6197139;23;20167;-88
2022/09/03 08:14:38;;;;;;;4.63;1.50;;;;;;;;;;6200668;23;20179;-90
2022/09/03 08:17:44;;;;;;;3.22;1.50;;;;;;;;;;6198325;23;20195;-89
2022/09/03 08:20:50;;;;;;;4.28;1.30;;;;;;;;;;6201625;23;20180;-90
2022/09/03 08:24:01;;;;;;;4.38;1.58;;;;;;;;;;6201768;23;20168;-88
2022/09/03 08:27:07;;;;;;;6.20;1.75;;;;;;;;;;6204611;23;20221;-87
2022/09/03 08:30:14;;;;;;;4.38;1.80;;;;;;;;;;6200799;23;20258;-88
2022/09/03 08:33:35;;;;;;;3.63;1.30;;;;;;;;;;6198172;23;20224;-90
2022/09/03 08:36:43;;;;;;;7.63;1.92;;;;;;;;;;6196658;23;20623;-87
2022/09/03 08:39:48;;;;;;;4.68;1.67;;;;;;;;;;6197154;23;20163;-90
2022/09/03 08:43:04;;;;;;;7.82;1.95;;;;;;;;;;6195693;23;20246;-89
2022/09/03 08:46:16;;;;;;;2.78;1.67;;;;;;;;;;6197979;23;20608;-88
2022/09/03 08:49:24;;;;;;;2.63;1.60;;;;;;;;;;6199456;23;20167;-89
2022/09/03 08:52:34;;;;;;;3.78;1.60;;;;;;;;;;6202709;23;20279;-90
2022/09/03 08:55:43;;;;;;;3.90;1.60;;;;;;;;;;6197564;23;20175;-89
2022/09/03 08:58:48;;;;;;;7.50;1.80;;;;;;;;;;6199356;23;20163;-89
2022/09/03 09:02:03;;;;;;;2.70;1.63;;;;;;;;;;6204222;23;20179;-88
2022/09/03 09:05:13;;;;;;;5.20;1.60;;;;;;;;;;6197629;23;20236;-89
2022/09/03 09:08:21;;;;;;;5.90;1.73;;;;;;;;;;6202155;23;20151;-90
2022/09/03 09:11:33;;;;;;;6.53;1.95;;;;;;;;;;6194364;23;20174;-88
2022/09/03 09:14:41;;;;;;;3.13;1.83;;;;;;;;;;6194991;23;20203;-89
2022/09/03 09:17:56;;;;;;;4.28;1.60;;;;;;;;;;6196771;23;20155;-90
2022/09/03 09:21:07;;;;;;;4.28;1.73;;;;;;;;;;6194993;23;20158;-86
2022/09/03 09:24:20;;;;;;;3.25;1.67;;;;;;;;;;6198181;23;20256;-90
2022/09/03 09:27:26;;;;;;;5.28;1.90;;;;;;;;;;6197320;23;20183;-90
2022/09/03 09:30:32;;;;;;;4.18;1.80;;;;;;;;;;6196699;23;20171;-88
2022/09/03 09:33:40;;;;;;;4.43;1.85;;;;;;;;;;6200604;23;20199;-91
2022/09/03 09:36:49;;;;;;;4.38;1.80;;;;;;;;;;6198967;23;20171;-90
2022/09/03 09:39:57;;;;;;;3.28;1.58;;;;;;;;;;6198371;23;20166;-90
2022/09/03 09:43:06;;;;;;;3.50;1.80;;;;;;;;;;6203850;23;20227;-89
2022/09/03 09:46:15;;;;;;;3.85;2.08;;;;;;;;;;6199620;23;20156;-88
2022/09/03 09:49:30;;;;;;;4.95;1.70;;;;;;;;;;6198619;23;20174;-89
2022/09/03 09:52:46;;;;;;;3.88;1.80;;;;;;;;;;6197246;23;20197;-89
2022/09/03 09:55:54;;;;;;;3.55;1.38;;;;;;;;;;6205681;23;20631;-87
2022/09/03 09:59:06;;;;;;;7.28;1.67;;;;;;;;;;6201309;23;20212;-88
2022/09/03 10:02:14;;;;;;;4.15;1.65;;;;;;;;;;6198297;23;20224;-89
2022/09/03 10:05:24;;;;;;;4.15;1.45;;;;;;;;;;6199171;23;20179;-90
2022/09/03 10:08:32;;;;;;;2.95;1.70;;;;;;;;;;6198095;23;20206;-90
2022/09/03 10:15:22;;;;;;;6.03;1.50;;;;;;;;;;6197723;23;20170;-92
2022/09/03 10:18:31;;;;;;;3.58;1.50;;;;;;;;;;6181588;23;20174;-89
2022/09/03 10:21:42;;;;;;;4.45;1.40;;;;;;;;;;6183163;23;20159;-89
2022/09/03 10:24:55;;;;;;;4.00;2.00;;;;;;;;;;6180508;23;20291;-91
2022/09/03 10:28:01;;;;;;;5.18;2.00;;;;;;;;;;6180309;23;20155;-91
2022/09/03 10:31:19;;;;;;;5.28;1.48;;;;;;;;;;6201611;23;20151;-90
2022/09/03 10:34:33;;;;;;;3.92;1.60;;;;;;;;;;6188725;23;20182;-90
2022/09/03 10:41:10;;;;;;;3.83;1.60;;;;;;;;;;6184897;23;20187;-92
2022/09/03 10:47:04;;;;;;;18.23;4.95;;;;;;;;;;6204937;22;20214;-90
2022/09/03 10:50:15;;;;;;;3.38;1.70;;;;;;;;;;6244914;22;20174;-89
2022/09/03 10:53:36;;;;;;;3.92;1.38;;;;;;;;;;6240619;23;20193;-87
2022/09/03 10:56:48;;;;;;;3.38;1.42;;;;;;;;;;6239257;22;20178;-88
2022/09/03 11:00:04;;;;;;;5.72;2.50;;;;;;;;;;6241898;22;20177;-89
2022/09/03 11:03:37;;;;;;;3.47;1.38;;;;;;;;;;6241255;23;20166;-90
2022/09/03 11:06:48;;;;;;;5.22;1.30;;;;;;;;;;6245519;23;20223;-89
2022/09/03 11:09:58;;;;;;;2.65;1.30;;;;;;;;;;6243388;22;20166;-88
2022/09/03 11:13:14;;;;;;;3.25;1.70;;;;;;;;;;6240855;23;20255;-89
2022/09/03 11:16:21;;;;;;;5.50;1.52;;;;;;;;;;6241076;23;20170;-90
2022/09/03 11:19:44;;;;;;;5.07;1.45;;;;;;;;;;6244276;23;20166;-89
2022/09/03 11:22:51;;;;;;;4.90;1.70;;;;;;;;;;6242410;23;20225;-91
2022/09/03 11:25:59;;;;;;;4.43;1.50;;;;;;;;;;6243088;23;20170;-89
2022/09/03 11:29:11;;;;;;;4.43;1.30;;;;;;;;;;6237767;23;20735;-89
2022/09/03 11:32:18;;;;;;;3.67;1.50;;;;;;;;;;6243259;22;20161;-89
2022/09/03 11:35:30;;;;;;;4.75;1.58;;;;;;;;;;6242246;23;20492;-89
2022/09/03 11:38:38;;;;;;;3.47;1.67;;;;;;;;;;6241366;22;20165;-89
2022/09/03 11:41:58;;;;;;;4.07;1.40;;;;;;;;;;6244028;23;20493;-90
2022/09/03 11:45:18;;;;;;;2.08;1.40;;;;;;;;;;6243874;22;20169;-88
2022/09/03 11:48:37;;;;;;;6.07;2.67;;;;;;;;;;6244163;22;20198;-90
2022/09/03 11:51:42;;;;;;;2.92;1.30;;;;;;;;;;6249532;22;20166;-89
2022/09/03 11:54:51;;;;;;;3.05;1.48;;;;;;;;;;6243776;23;20532;-91
2022/09/03 11:57:58;;;;;;;4.93;1.30;;;;;;;;;;6243276;22;20161;-90
2022/09/03 12:01:06;;;;;;;3.97;1.38;;;;;;;;;;6245052;23;20233;-88
2022/09/03 12:04:16;;;;;;;5.38;1.50;;;;;;;;;;6246925;23;20223;-90
2022/09/03 12:07:38;;;;;;;5.65;1.65;;;;;;;;;;6242448;22;20170;-90
2022/09/03 12:10:47;;;;;;;5.95;1.55;;;;;;;;;;6241997;23;20217;-92
2022/09/03 12:13:59;;;;;;;3.33;1.40;;;;;;;;;;6242245;23;20185;-88
2022/09/03 12:17:12;;;;;;;4.53;1.42;;;;;;;;;;6243100;23;20216;-89
2022/09/03 12:20:22;;;;;;;3.33;1.52;;;;;;;;;;6243040;22;20245;-91
2022/09/03 12:23:28;;;;;;;3.03;1.65;;;;;;;;;;6241133;23;20181;-90
2022/09/03 12:26:39;;;;;;;5.25;1.52;;;;;;;;;;6238557;23;20208;-90
2022/09/03 12:29:56;;;;;;;3.35;1.20;;;;;;;;;;6239918;23;20166;-89
2022/09/03 12:33:06;;;;;;;3.38;1.30;;;;;;;;;;6246104;23;20217;-89
2022/09/03 12:36:12;;;;;;;5.38;1.60;;;;;;;;;;6242087;23;20170;-88
2022/09/03 12:39:18;;;;;;;5.00;1.52;;;;;;;;;;6222458;23;20166;-89
2022/09/03 12:42:26;;;;;;;5.05;1.90;;;;;;;;;;6237345;23;20502;-89
2022/09/03 12:45:33;;;;;;;4.90;1.50;;;;;;;;;;6235858;23;20247;-91
2022/09/03 12:48:37;;;;;;;4.47;1.63;;;;;;;;;;6238173;23;20186;-89
2022/09/03 12:51:43;;;;;;;4.82;1.73;;;;;;;;;;6239110;22;20166;-91
2022/09/03 12:54:52;;;;;;;2.42;1.42;;;;;;;;;;6243008;23;20199;-88
2022/09/03 12:58:01;;;;;;;3.88;1.67;;;;;;;;;;6240387;23;20166;-88
2022/09/03 13:01:09;;;;;;;3.15;1.50;;;;;;;;;;6239744;23;20235;-91
2022/09/03 13:04:16;;;;;;;5.70;2.30;;;;;;;;;;6242837;22;20226;-88
2022/09/03 13:07:25;;;;;;;5.78;1.60;;;;;;;;;;6240898;23;20255;-89
2022/09/03 13:10:31;;;;;;;3.97;1.45;;;;;;;;;;6258722;22;20193;-92
2022/09/03 13:13:38;;;;;;;6.82;1.88;;;;;;;;;;6237719;23;20209;-89
2022/09/03 13:17:13;;;;;;;3.38;1.40;;;;;;;;;;6237074;23;20162;-88
2022/09/03 13:20:27;;;;;;;1.80;1.40;;;;;;;;;;6239271;23;20212;-90
2022/09/03 13:23:36;;;;;;;4.07;1.70;;;;;;;;;;6237942;23;20182;-89
2022/09/03 13:26:48;;;;;;;4.72;1.73;;;;;;;;;;6240891;23;20171;-89
2022/09/03 13:30:02;;;;;;;3.78;1.42;;;;;;;;;;6238231;22;20222;-88
2022/09/03 13:33:10;;;;;;;5.20;1.60;;;;;;;;;;6238332;23;20297;-90
2022/09/03 13:36:17;;;;;;;5.78;1.75;;;;;;;;;;6241172;23;20163;-89
2022/09/03 13:39:27;;;;;;;4.38;1.75;;;;;;;;;;6240157;23;20257;-89
2022/09/03 13:42:34;;;;;;;5.45;2.20;;;;;;;;;;6238262;23;20190;-89
2022/09/03 13:45:41;;;;;;;2.90;1.58;;;;;;;;;;6237447;23;20222;-88
2022/09/03 13:52:19;;;;;;;5.95;1.85;;;;;;;;;;6237570;23;20185;-88
2022/09/03 13:55:27;;;;;;;4.40;1.98;;;;;;;;;;6237814;22;20237;-89
2022/09/03 13:58:36;;;;;;;2.55;1.85;;;;;;;;;;6239177;22;20178;-88
2022/09/03 14:01:47;;;;;;;4.10;1.60;;;;;;;;;;6244233;22;20150;-90
2022/09/03 14:04:59;;;;;;;5.47;1.90;;;;;;;;;;6239103;23;20265;-88
2022/09/03 14:08:13;;;;;;;4.68;1.50;;;;;;;;;;6238614;23;20237;-90
2022/09/03 14:11:24;;;;;;;67.05;5.05;;;;;;;;;;6236244;23;20175;-91
2022/09/03 14:14:35;;;;;;;3.92;1.85;;;;;;;;;;6239685;23;20195;-87
2022/09/03 14:17:42;;;;;;;4.43;1.55;;;;;;;;;;6239680;23;20166;-90
2022/09/03 14:20:50;;;;;;;5.03;2.80;;;;;;;;;;6238691;23;20446;-88
2022/09/03 14:24:02;;;;;;;3.03;1.75;;;;;;;;;;6237825;23;20170;-89
2022/09/03 14:27:07;;;;;;;5.75;2.00;;;;;;;;;;6239808;23;20190;-87
2022/09/03 14:30:19;;;;;;;6.00;1.80;;;;;;;;;;6239591;23;20322;-89
2022/09/03 14:33:27;;;;;;;6.05;1.73;;;;;;;;;;6239084;23;20163;-88
2022/09/03 14:36:35;;;;;;;4.88;2.20;;;;;;;;;;6240878;23;20241;-89
2022/09/03 14:39:47;;;;;;;4.80;1.88;;;;;;;;;;6236610;23;20170;-90
2022/09/03 14:43:01;;;;;;;3.42;1.63;;;;;;;;;;6240620;22;20248;-88
2022/09/03 14:46:16;;;;;;;5.30;1.90;;;;;;;;;;6237861;23;20707;-91
2022/09/03 14:49:34;;;;;;;4.70;1.85;;;;;;;;;;6237402;23;20175;-91
2022/09/03 14:52:50;;;;;;;5.32;1.90;;;;;;;;;;6255413;22;20709;-88
2022/09/03 14:56:10;;;;;;;4.47;2.38;;;;;;;;;;6237843;22;20500;-89
2022/09/03 14:59:24;;;;;;;7.45;2.10;;;;;;;;;;6239459;23;20244;-89
2022/09/03 15:02:45;;;;;;;6.15;1.73;;;;;;;;;;6238242;23;20166;-90
2022/09/03 15:05:54;;;;;;;5.80;2.55;;;;;;;;;;6207382;23;20189;-90
2022/09/03 15:09:10;;;;;;;3.63;1.60;;;;;;;;;;6237695;23;20165;-90
2022/09/03 15:12:21;;;;;;;4.13;1.92;;;;;;;;;;6239170;22;20610;-89
2022/09/03 15:15:32;;;;;;;8.20;2.70;;;;;;;;;;6235816;23;20313;-90
2022/09/03 15:18:42;;;;;;;6.13;2.75;;;;;;;;;;6237930;23;20162;-88
2022/09/03 15:22:00;;;;;;;8.00;2.05;;;;;;;;;;6238810;23;20158;-88
2022/09/03 15:25:14;;;;;;;4.78;1.85;;;;;;;;;;6239452;23;20315;-89
2022/09/03 15:28:25;;;;;;;9.07;2.13;;;;;;;;;;6240203;23;20167;-89
2022/09/03 15:31:38;;;;;;;6.20;3.22;;;;;;;;;;6239087;23;20165;-88
2022/09/03 15:34:49;;;;;;;8.43;3.17;;;;;;;;;;6241557;22;20189;-90
2022/09/03 15:37:56;;;;;;;4.60;2.10;;;;;;;;;;6239706;22;20206;-88
2022/09/03 15:41:03;;;;;;;6.75;2.50;;;;;;;;;;6241321;22;20244;-88
2022/09/03 15:44:13;;;;;;;5.95;1.80;;;;;;;;;;6238548;23;20178;-88
2022/09/03 15:47:32;;;;;;;3.13;1.50;;;;;;;;;;6242878;23;20185;-93
2022/09/03 15:50:42;;;;;;;7.40;2.40;;;;;;;;;;6241302;23;20162;-91
2022/09/03 15:53:52;;;;;;;4.28;2.58;;;;;;;;;;6243074;22;20159;-89
2022/09/03 15:57:04;;;;;;;5.07;2.47;;;;;;;;;;6243515;23;20233;-86
2022/09/03 16:00:13;;;;;;;3.80;2.22;;;;;;;;;;6243614;23;20249;-87
2022/09/03 16:03:20;;;;;;;6.13;2.60;;;;;;;;;;6239660;23;20278;-89
2022/09/03 16:06:36;;;;;;;6.40;3.17;;;;;;;;;;6241415;22;20249;-89
2022/09/03 16:09:47;;;;;;;5.82;3.00;;;;;;;;;;6243129;23;20212;-89
2022/09/03 16:13:05;;;;;;;3.92;1.80;;;;;;;;;;6245259;23;20610;-90
2022/09/03 16:16:25;;;;;;;3.10;1.67;;;;;;;;;;6244675;23;20174;-89
2022/09/03 16:19:42;;;;;;;6.65;2.75;;;;;;;;;;6241871;22;20206;-90
2022/09/03 16:22:58;;;;;;;38.25;23.77;;;;;;;;;;6241364;23;20178;-90
2022/09/03 16:26:08;;;;;;;8.07;2.35;;;;;;;;;;6244225;23;20178;-88
2022/09/03 16:29:19;;;;;;;7.25;2.47;;;;;;;;;;6238530;23;20174;-88
2022/09/03 16:32:47;;;;;;;3.70;2.33;;;;;;;;;;6242921;22;20167;-88
2022/09/03 16:35:56;;;;;;;5.72;2.10;;;;;;;;;;6241987;23;20197;-88
2022/09/03 16:39:04;;;;;;;7.57;3.60;;;;;;;;;;6241173;23;20166;-87
2022/09/03 16:42:12;;;;;;;18.13;5.40;;;;;;;;;;6241827;23;20190;-88
2022/09/03 16:45:22;;;;;;;3.67;2.13;;;;;;;;;;6242319;23;20167;-90
2022/09/03 16:48:33;;;;;;;3.67;2.10;;;;;;;;;;6229338;23;20286;-89
2022/09/03 16:51:42;;;;;;;5.70;2.40;;;;;;;;;;6229187;23;20174;-87
2022/09/03 16:54:53;;;;;;;8.15;3.20;;;;;;;;;;6226524;23;20421;-88
2022/09/03 16:58:06;;;;;;;7.22;2.97;;;;;;;;;;6228085;23;20171;-87
2022/09/03 17:01:18;;;;;;;8.05;2.65;;;;;;;;;;6228774;23;20171;-88
2022/09/03 17:04:42;;;;;;;6.95;2.90;;;;;;;;;;6228594;23;20167;-88
2022/09/03 17:08:08;;;;;;;5.20;2.45;;;;;;;;;;6229869;23;20171;-88
2022/09/03 17:11:20;;;;;;;5.68;2.50;;;;;;;;;;6227590;23;20175;-88
2022/09/03 17:14:33;;;;;;;8.55;2.78;;;;;;;;;;6227584;23;20320;-88
2022/09/03 17:17:53;;;;;;;5.35;3.17;;;;;;;;;;6227159;23;20163;-88
2022/09/03 17:21:06;;;;;;;7.35;4.05;;;;;;;;;;6231545;23;20286;-87
2022/09/03 17:24:22;;;;;;;53.53;34.17;;;;;;;;;;6226559;23;20207;-86
2022/09/03 17:27:43;;;;;;;5.05;2.90;;;;;;;;;;6227852;23;20546;-89
2022/09/03 17:30:56;;;;;;;8.52;2.70;;;;;;;;;;6226267;23;20163;-89
2022/09/03 17:34:06;;;;;;;9.23;2.50;;;;;;;;;;6226268;23;20185;-88
2022/09/03 17:37:17;;;;;;;5.90;2.97;;;;;;;;;;6226689;23;20171;-89
2022/09/03 17:40:38;;;;;;;7.10;3.00;;;;;;;;;;6226549;23;20167;-88
2022/09/03 17:43:46;;;;;;;8.20;3.63;;;;;;;;;;6226304;23;20206;-89
2022/09/03 17:47:00;;;;;;;7.47;3.90;;;;;;;;;;6234209;23;20225;-89
2022/09/03 17:50:09;;;;;;;8.05;3.55;;;;;;;;;;6239179;23;20241;-90
2022/09/03 17:53:23;;;;;;;12.68;3.60;;;;;;;;;;6238338;23;20178;-88
2022/09/03 17:56:30;;;;;;;6.35;3.20;;;;;;;;;;6237976;23;20195;-89
2022/09/03 17:59:43;;;;;;;6.80;3.83;;;;;;;;;;6239382;23;20298;-91
2022/09/03 18:02:52;;;;;;;5.10;3.30;;;;;;;;;;6239932;23;20179;-92
2022/09/03 18:06:00;;;;;;;6.63;3.70;;;;;;;;;;6239327;22;20186;-88
2022/09/03 18:09:08;;;;;;;7.50;3.40;;;;;;;;;;6239239;23;20530;-89
2022/09/03 18:12:15;;;;;;;6.90;2.92;;;;;;;;;;6239725;23;20206;-91
2022/09/03 18:15:22;;;;;;;11.25;2.88;;;;;;;;;;6240163;23;20214;-89
2022/09/03 18:18:30;;;;;;;3.75;2.50;;;;;;;;;;6240047;23;20664;-89
2022/09/03 22:17:51;;;;;;;7.90;5.22;;;;;;;;;;6249735;22;20209;-90
2022/09/03 22:21:00;;;;;;;8.10;4.70;;;;;;;;;;6246947;23;20171;-88
2022/09/03 22:24:13;;;;;;;8.63;5.10;;;;;;;;;;6246772;23;20602;-88
2022/09/03 22:27:24;;;;;;;7.90;5.45;;;;;;;;;;6247583;22;20158;-89
2022/09/03 22:30:31;;;;;;;7.47;4.72;;;;;;;;;;6247476;22;20496;-88
2022/09/03 22:33:43;;;;;;;10.43;5.15;;;;;;;;;;6245583;23;20162;-89
2022/09/03 22:36:51;;;;;;;8.20;5.13;;;;;;;;;;6247425;22;20217;-88
2022/09/03 22:40:02;;;;;;;10.77;4.82;;;;;;;;;;6246680;23;20240;-91
2022/09/03 22:43:19;;;;;;;10.27;5.18;;;;;;;;;;6248498;22;20220;-90
2022/09/03 22:46:32;;;;;;;8.25;5.22;;;;;;;;;;6247838;23;20195;-88
2022/09/03 22:49:43;;;;;;;9.05;5.20;;;;;;;;;;6238309;22;20209;-88
2022/09/03 22:52:57;;;;;;;14.25;5.43;;;;;;;;;;6239846;23;20170;-89
2022/09/03 22:56:06;;;;;;;8.13;5.25;;;;;;;;;;6239447;23;20245;-89
2022/09/03 22:59:13;;;;;;;9.65;5.05;;;;;;;;;;6238049;23;20245;-88
2022/09/03 23:02:21;;;;;;;11.40;6.80;;;;;;;;;;6237688;23;20665;-88
2022/09/03 23:05:41;;;;;;;10.55;5.45;;;;;;;;;;6237916;22;20226;-88
2022/09/03 23:08:48;;;;;;;10.05;5.38;;;;;;;;;;6238476;23;20163;-89
2022/09/03 23:11:56;;;;;;;7.68;5.10;;;;;;;;;;6236847;23;20171;-88